Airfield :
LOGIN :

Register | Disclaimer

   EN    FR    IT 

 










Legend :    VFR   Marginal VFR   IFR   Intensive IFR   Very Intensive IFR
Visi :
Ceiling :
>= 8 km
>= 3000ft
5 to 8 km
1000 to 3000 ft
1500m to 5 km
500 to 1000 ft
800 to 1500m
200 to 500 ft
< 800m
< 200 ft
Symbols :   Thunderstorms  Fog  Heavy snow  Heavy precipitations  Wind > 20 kt
SIGMETs :     Misc.  Thunderstorms  Icing  Turbulence  Mountain Waves  Volcanic Ashes






- Airport Elevation : 465 ft
- IATA code : LEJ


EDDP - Leipzig Halle

CURRENT METAR :
  • 052120Z AUTO 03004KT CAVOK M04/M05 Q1038 NOSIG

EXPIRED METARs :
  • 052050Z AUTO 06004KT CAVOK M04/M06 Q1038 NOSIG
  • 052020Z AUTO 04005KT CAVOK M03/M06 Q1038 NOSIG
  • 051950Z AUTO 05004KT CAVOK M03/M05 Q1038 NOSIG
  • 051920Z AUTO 05005KT CAVOK M02/M06 Q1037 NOSIG
  • 051850Z AUTO 06004KT CAVOK M02/M05 Q1037 NOSIG

TAF TAF EDDP
Valid from the 05 at 18:00 until the 06 at 18:00 UTC


051700Z 0518/0618 07008KT CAVOK
BECMG 0518/0521 12003KT
BECMG 0604/0607 4000 BR BKN008
TEMPO 0605/0612 2000 -SN BKN002
BECMG 0611/0614 07008KT
BECMG 0615/0618 6000 SCT015



MET'MAP, your aeronautical weather chart ! - Copyright ORBIFLY December 2007 - Disclaimer

ORBIFLY MET'MAP TEAM :

Programming & Development : Alexandra Zaïnal
Original concept : Baudouin d'Aumeries
Technical & hardware support : Manuel Goepfert
Assistance : Marc-Olivier Méhu




SOURCES & CREDITS :

   NOAA